CheckWX is a tool to help pilots better visualize weather data.  It is not intended as a substitute for an official pre-flight weather briefing.

01:10:00 UTC

KDEC TAF
Decatur Airport Airport
Decatur, Illinois, USA
KDEC 100540Z 1006/1106 28008KT P6SM SCT050 TEMPO 1009/1012 BKN025 FM101200 31013KT P6SM SCT250 FM101700 31015G22KT P6SM SCT050 FM110000 29007KT P6SM SKC

Jul-10@
06:00 UTC

Jul-10 @ 06:00 UTC

Jul-10@
12:00 UTC

Jul-10 @ 12:00 UTC

TAF KDEC 100540Z 1006/1106 28008KT P6SM SCT050

Expired

Wind
  • 280° at 8 KTS
Cloud Levels
  • Scattered at 5,000' AGL

Jul-10@
09:00 UTC

Jul-10 @ 09:00 UTC

Jul-10@
12:00 UTC

Jul-10 @ 12:00 UTC

TEMPO 1009/1012 BKN025

Expired

Cloud Levels
  • Broken at 2,500' AGL

Jul-10@
12:00 UTC

Jul-10 @ 12:00 UTC

Jul-10@
17:00 UTC

Jul-10 @ 17:00 UTC

FM101200 31013KT P6SM SCT250

Expired

Wind
  • 310° at 13 KTS
Cloud Levels
  • Scattered at 25,000' AGL

Jul-10@
17:00 UTC

Jul-10 @ 17:00 UTC

Jul-11@
00:00 UTC

Jul-11 @ 00:00 UTC

FM101700 31015G22KT P6SM SCT050

Expired

Wind
  • 310° at 15 KTS
  • {Gusting to 22 KTS
Cloud Levels
  • Scattered at 5,000' AGL

Jul-11@
00:00 UTC

Jul-11 @ 00:00 UTC

Jul-11@
06:00 UTC

Jul-11 @ 06:00 UTC

FM110000 29007KT P6SM SKC

From

From Standard forecast or significant change

Wind
  • 290° at 7 KTS
Cloud Levels
  • Clear skies